createdAt,value
2019-04-07T00:01:57.309Z,87.50
2019-04-07T00:07:59.819Z,87.50
2019-04-07T00:14:02.096Z,88.10
2019-04-07T00:20:05.452Z,88.40
2019-04-07T00:26:07.706Z,88.80
2019-04-07T00:39:26.056Z,88.80
2019-04-07T00:45:28.305Z,89.60
2019-04-07T00:51:31.059Z,89.90
2019-04-07T00:57:35.433Z,90.00
2019-04-07T01:03:38.084Z,90.20
2019-04-07T01:09:40.365Z,90.30
2019-04-07T01:15:42.777Z,90.60
2019-04-07T01:21:45.791Z,90.90
2019-04-07T01:27:48.097Z,91.20
2019-04-07T01:33:50.572Z,91.60
2019-04-07T01:39:53.730Z,91.50
2019-04-07T01:46:03.808Z,90.70
2019-04-07T01:52:08.370Z,90.70
2019-04-07T01:58:31.676Z,90.90
2019-04-07T02:04:42.435Z,91.20
2019-04-07T02:10:46.982Z,91.40
2019-04-07T02:16:56.800Z,91.40
2019-04-07T02:23:12.822Z,91.30
2019-04-07T02:29:22.635Z,91.40
2019-04-07T02:35:32.888Z,91.30
2019-04-07T02:41:55.214Z,92.00
2019-04-07T02:47:59.762Z,92.30
2019-04-07T02:54:04.399Z,91.90
2019-04-07T03:00:11.964Z,91.60
2019-04-07T03:06:37.309Z,91.50
2019-04-07T03:12:34.442Z,91.80
2019-04-07T03:18:44.988Z,91.80
2019-04-07T03:24:49.758Z,92.50
2019-04-07T03:31:04.129Z,92.10
2019-04-07T03:37:34.392Z,92.50
2019-04-07T03:43:35.897Z,92.20
2019-04-07T03:49:55.350Z,92.50
2019-04-07T03:55:59.946Z,92.70
2019-04-07T04:02:21.616Z,92.80
2019-04-07T04:08:36.792Z,93.10
2019-04-07T04:14:44.037Z,93.00
2019-04-07T04:20:46.532Z,93.00
2019-04-07T04:26:49.985Z,93.30
2019-04-07T04:32:55.438Z,93.60
2019-04-07T04:38:58.006Z,93.10
2019-04-07T04:45:00.617Z,93.20
2019-04-07T04:51:03.503Z,93.30
2019-04-07T04:57:08.911Z,93.40
2019-04-07T05:03:11.356Z,93.10
2019-04-07T05:09:14.554Z,93.60
2019-04-07T05:15:17.533Z,93.40
2019-04-07T05:21:20.712Z,93.20
2019-04-07T05:27:23.906Z,90.00
2019-04-07T05:33:26.680Z,82.40
2019-04-07T05:39:29.403Z,75.70
2019-04-07T05:45:33.785Z,71.50
2019-04-07T05:51:37.058Z,68.50
2019-04-07T05:57:41.497Z,64.60
2019-04-07T06:03:44.026Z,62.70
2019-04-07T06:09:49.951Z,59.40
2019-04-07T06:15:52.894Z,56.70
2019-04-07T06:21:57.968Z,54.80
2019-04-07T06:28:00.621Z,54.00
2019-04-07T06:34:04.200Z,52.50
2019-04-07T06:40:09.115Z,51.60
2019-04-07T06:46:18.666Z,49.00
2019-04-07T06:52:41.033Z,48.60
2019-04-07T06:58:55.835Z,46.50
2019-04-07T07:05:15.685Z,45.40
2019-04-07T07:11:28.060Z,45.10
2019-04-07T07:17:27.953Z,43.40
2019-04-07T07:23:35.112Z,43.20
2019-04-07T07:29:38.663Z,44.40
2019-04-07T07:35:45.524Z,46.50
2019-04-07T07:41:46.462Z,47.50
2019-04-07T07:47:53.238Z,48.10
2019-04-07T07:54:04.660Z,47.80
2019-04-07T08:00:10.292Z,48.20
2019-04-07T08:06:15.031Z,49.00
2019-04-07T08:12:18.507Z,49.90
2019-04-07T08:18:28.573Z,48.70
2019-04-07T08:24:40.604Z,45.90
2019-04-07T08:30:47.465Z,46.60
2019-04-07T08:36:49.512Z,43.90
2019-04-07T08:42:52.328Z,42.70
2019-04-07T08:48:59.366Z,41.70
2019-04-07T08:55:11.367Z,44.30
2019-04-07T09:01:20.319Z,44.30
2019-04-07T09:07:24.531Z,47.80
2019-04-07T09:13:27.669Z,51.10
2019-04-07T09:19:44.316Z,54.00
2019-04-07T09:26:11.081Z,56.20
2019-04-07T09:32:20.949Z,55.30
2019-04-07T09:38:27.279Z,55.40
2019-04-07T09:44:37.839Z,56.90
2019-04-07T09:50:54.970Z,55.20
2019-04-07T09:57:15.609Z,54.10
2019-04-07T10:03:38.155Z,53.90
2019-04-07T10:10:10.139Z,54.20
2019-04-07T10:16:22.704Z,55.10
2019-04-07T10:22:32.803Z,55.30
2019-04-07T10:28:47.666Z,53.90
2019-04-07T10:34:57.537Z,53.00
2019-04-07T10:41:05.760Z,54.10
2019-04-07T10:47:26.194Z,54.30
2019-04-07T10:53:34.336Z,52.90
2019-04-07T10:59:40.465Z,53.70
2019-04-07T11:06:01.853Z,51.30
2019-04-07T11:12:23.240Z,52.90
2019-04-07T11:18:43.067Z,53.30
2019-04-07T11:25:05.363Z,53.90
2019-04-07T11:31:12.759Z,54.00
2019-04-07T11:37:33.791Z,54.70
2019-04-07T11:43:39.175Z,54.60
2019-04-07T11:49:46.173Z,52.60
2019-04-07T11:55:51.050Z,55.70
2019-04-07T12:02:12.562Z,53.30
2019-04-07T12:08:19.241Z,53.70
2019-04-07T12:14:43.015Z,53.10
2019-04-07T12:21:00.963Z,51.80
2019-04-07T12:27:01.735Z,52.10
2019-04-07T12:33:23.704Z,51.60
2019-04-07T12:39:49.520Z,52.10
2019-04-07T12:45:59.305Z,52.30
2019-04-07T12:52:04.352Z,51.90
2019-04-07T12:58:27.878Z,51.00
2019-04-07T13:04:49.033Z,50.10
2019-04-07T13:10:54.705Z,47.90
2019-04-07T13:17:13.778Z,47.90
2019-04-07T13:23:24.447Z,48.10
2019-04-07T13:29:32.267Z,47.50
2019-04-07T13:35:47.591Z,44.50
2019-04-07T13:42:09.874Z,45.80
2019-04-07T13:48:19.586Z,45.90
2019-04-07T13:54:33.851Z,46.40
2019-04-07T14:00:45.325Z,47.70
2019-04-07T14:07:04.066Z,46.20
2019-04-07T14:13:24.611Z,45.80
2019-04-07T14:19:33.250Z,46.00
2019-04-07T14:25:43.451Z,44.20
2019-04-07T14:32:04.522Z,44.60
2019-04-07T14:38:19.008Z,44.40
2019-04-07T14:44:29.328Z,44.90
2019-04-07T14:50:33.662Z,44.10
2019-04-07T14:56:42.109Z,44.50
2019-04-07T15:02:45.512Z,44.80
2019-04-07T15:09:01.880Z,44.90
2019-04-07T15:15:08.815Z,45.00
2019-04-07T15:21:15.627Z,45.30
2019-04-07T15:27:21.934Z,45.40
2019-04-07T15:33:27.360Z,45.60
2019-04-07T15:39:38.114Z,45.20
2019-04-07T15:45:42.674Z,45.40
2019-04-07T15:51:45.660Z,45.60
2019-04-07T15:57:53.510Z,45.70
2019-04-07T16:03:57.027Z,45.60
2019-04-07T16:10:03.768Z,46.80
2019-04-07T16:16:07.844Z,46.30
2019-04-07T16:22:12.429Z,45.80
2019-04-07T16:28:16.161Z,46.10
2019-04-07T16:34:19.309Z,46.60
2019-04-07T16:40:24.935Z,46.70
2019-04-07T16:46:28.685Z,46.70
2019-04-07T16:52:33.157Z,47.30
2019-04-07T16:58:38.708Z,47.40
2019-04-07T17:04:40.976Z,50.90
2019-04-07T17:10:47.036Z,52.40
2019-04-07T17:16:50.395Z,53.50
2019-04-07T17:22:58.763Z,55.80
2019-04-07T17:29:03.011Z,56.80
2019-04-07T17:35:29.589Z,57.80
2019-04-07T17:41:49.871Z,59.60
2019-04-07T17:48:16.870Z,61.90
2019-04-07T17:54:41.379Z,63.30
2019-04-07T18:00:59.646Z,65.10
2019-04-07T18:07:17.569Z,67.00
2019-04-07T18:13:25.091Z,67.90
2019-04-07T18:19:36.233Z,69.20
2019-04-07T18:25:47.883Z,70.40
2019-04-07T18:32:11.211Z,71.20
2019-04-07T18:38:31.515Z,71.80
2019-04-07T18:44:52.420Z,72.80
2019-04-07T18:51:15.950Z,73.80
2019-04-07T18:57:20.602Z,74.40
2019-04-07T19:03:41.864Z,74.80
2019-04-07T19:09:46.143Z,75.60
2019-04-07T19:15:51.260Z,76.00
2019-04-07T19:22:15.818Z,76.30
2019-04-07T19:28:34.083Z,76.30
2019-04-07T19:35:02.026Z,76.20
2019-04-07T19:41:21.549Z,75.90
2019-04-07T19:47:34.431Z,75.40
2019-04-07T19:53:55.788Z,75.40
2019-04-07T20:00:23.267Z,75.60
2019-04-07T20:06:48.444Z,76.50
2019-04-07T20:13:09.901Z,76.00
2019-04-07T20:19:36.174Z,76.20
2019-04-07T20:25:47.934Z,76.50
2019-04-07T20:31:54.717Z,76.70
2019-04-07T20:38:11.498Z,76.80
2019-04-07T20:44:20.847Z,76.90
2019-04-07T20:50:28.221Z,77.40
2019-04-07T20:56:43.675Z,77.60
2019-04-07T21:03:01.469Z,77.80
2019-04-07T21:09:05.817Z,78.30
2019-04-07T21:15:20.827Z,78.60
2019-04-07T21:21:24.077Z,78.70
2019-04-07T21:27:44.021Z,78.80
2019-04-07T21:33:55.803Z,78.80
2019-04-07T21:40:06.035Z,78.90
2019-04-07T21:46:15.399Z,79.10
2019-04-07T21:52:34.471Z,79.40
2019-04-07T21:58:45.221Z,79.30
2019-04-07T22:05:05.246Z,79.60
2019-04-07T22:11:07.745Z,79.90
2019-04-07T22:17:10.426Z,80.00
2019-04-07T22:23:12.689Z,80.30
2019-04-07T22:29:16.137Z,80.30
2019-04-07T22:35:18.877Z,80.50
2019-04-07T22:41:42.646Z,81.20
2019-04-07T22:47:45.072Z,81.40
2019-04-07T22:53:47.643Z,81.90
2019-04-07T22:59:50.411Z,82.50
2019-04-07T23:05:53.324Z,82.50
2019-04-07T23:12:00.512Z,82.70
2019-04-07T23:18:03.175Z,82.40
2019-04-07T23:24:05.714Z,82.80
2019-04-07T23:30:11.020Z,83.20
2019-04-07T23:36:13.700Z,83.20
2019-04-07T23:42:15.987Z,83.00
2019-04-07T23:48:19.526Z,82.90
2019-04-07T23:54:22.575Z,82.70
